sensor_id;sensor_type;location;lat;lon;timestamp;P1;durP1;ratioP1;P2;durP2;ratioP2
26052;SDS011;13826;51.186;4.450;2022-08-21T00:01:57;12.07;;;2.75;;
26052;SDS011;13826;51.186;4.450;2022-08-21T00:04:23;7.22;;;2.80;;
26052;SDS011;13826;51.186;4.450;2022-08-21T00:06:50;11.65;;;3.03;;
26052;SDS011;13826;51.186;4.450;2022-08-21T00:09:16;10.57;;;3.05;;
26052;SDS011;13826;51.186;4.450;2022-08-21T00:11:43;8.43;;;2.83;;
26052;SDS011;13826;51.186;4.450;2022-08-21T00:14:13;13.07;;;3.67;;
26052;SDS011;13826;51.186;4.450;2022-08-21T00:16:40;11.05;;;2.92;;
26052;SDS011;13826;51.186;4.450;2022-08-21T00:19:06;7.55;;;2.80;;
26052;SDS011;13826;51.186;4.450;2022-08-21T00:21:32;10.10;;;3.50;;
26052;SDS011;13826;51.186;4.450;2022-08-21T00:23:59;8.60;;;2.78;;
26052;SDS011;13826;51.186;4.450;2022-08-21T00:26:25;10.80;;;2.50;;
26052;SDS011;13826;51.186;4.450;2022-08-21T00:28:51;11.98;;;2.80;;
26052;SDS011;13826;51.186;4.450;2022-08-21T00:31:17;9.02;;;2.50;;
26052;SDS011;13826;51.186;4.450;2022-08-21T00:33:43;8.10;;;2.95;;
26052;SDS011;13826;51.186;4.450;2022-08-21T00:36:09;11.23;;;2.80;;
26052;SDS011;13826;51.186;4.450;2022-08-21T00:38:35;8.13;;;2.60;;
26052;SDS011;13826;51.186;4.450;2022-08-21T00:41:04;8.75;;;2.65;;
26052;SDS011;13826;51.186;4.450;2022-08-21T00:43:33;15.15;;;3.03;;
26052;SDS011;13826;51.186;4.450;2022-08-21T00:46:00;12.88;;;2.92;;
26052;SDS011;13826;51.186;4.450;2022-08-21T00:48:26;8.95;;;2.85;;
26052;SDS011;13826;51.186;4.450;2022-08-21T00:51:07;14.80;;;3.33;;
26052;SDS011;13826;51.186;4.450;2022-08-21T00:53:37;15.70;;;3.10;;
26052;SDS011;13826;51.186;4.450;2022-08-21T00:56:05;6.72;;;2.58;;
26052;SDS011;13826;51.186;4.450;2022-08-21T00:58:34;11.60;;;2.80;;
26052;SDS011;13826;51.186;4.450;2022-08-21T01:01:04;11.00;;;3.05;;
26052;SDS011;13826;51.186;4.450;2022-08-21T01:03:31;10.27;;;2.92;;
26052;SDS011;13826;51.186;4.450;2022-08-21T01:05:57;13.55;;;3.33;;
26052;SDS011;13826;51.186;4.450;2022-08-21T01:08:23;10.52;;;3.60;;
26052;SDS011;13826;51.186;4.450;2022-08-21T01:10:50;11.02;;;3.63;;
26052;SDS011;13826;51.186;4.450;2022-08-21T01:13:18;10.45;;;2.38;;
26052;SDS011;13826;51.186;4.450;2022-08-21T01:15:46;10.25;;;3.15;;
26052;SDS011;13826;51.186;4.450;2022-08-21T01:18:14;7.55;;;2.85;;
26052;SDS011;13826;51.186;4.450;2022-08-21T01:20:43;8.95;;;3.00;;
26052;SDS011;13826;51.186;4.450;2022-08-21T01:23:16;8.50;;;3.03;;
26052;SDS011;13826;51.186;4.450;2022-08-21T01:25:42;13.82;;;3.58;;
26052;SDS011;13826;51.186;4.450;2022-08-21T01:28:11;12.05;;;3.03;;
26052;SDS011;13826;51.186;4.450;2022-08-21T01:30:38;13.50;;;3.28;;
26052;SDS011;13826;51.186;4.450;2022-08-21T01:33:05;9.30;;;3.25;;
26052;SDS011;13826;51.186;4.450;2022-08-21T01:35:30;9.55;;;3.08;;
26052;SDS011;13826;51.186;4.450;2022-08-21T01:37:56;11.70;;;3.78;;
26052;SDS011;13826;51.186;4.450;2022-08-21T01:40:22;10.88;;;4.70;;
26052;SDS011;13826;51.186;4.450;2022-08-21T01:42:48;14.10;;;3.85;;
26052;SDS011;13826;51.186;4.450;2022-08-21T01:45:14;14.75;;;4.35;;
26052;SDS011;13826;51.186;4.450;2022-08-21T01:47:40;13.05;;;4.03;;
26052;SDS011;13826;51.186;4.450;2022-08-21T01:50:10;20.48;;;7.32;;
26052;SDS011;13826;51.186;4.450;2022-08-21T01:52:37;13.38;;;5.65;;
26052;SDS011;13826;51.186;4.450;2022-08-21T01:55:04;10.43;;;4.57;;
26052;SDS011;13826;51.186;4.450;2022-08-21T01:57:34;15.75;;;7.47;;
26052;SDS011;13826;51.186;4.450;2022-08-21T02:00:00;17.60;;;8.02;;
26052;SDS011;13826;51.186;4.450;2022-08-21T02:02:28;10.15;;;5.65;;
26052;SDS011;13826;51.186;4.450;2022-08-21T02:04:54;13.15;;;5.22;;
26052;SDS011;13826;51.186;4.450;2022-08-21T02:07:20;10.80;;;4.65;;
26052;SDS011;13826;51.186;4.450;2022-08-21T02:09:46;11.50;;;4.57;;
26052;SDS011;13826;51.186;4.450;2022-08-21T02:12:12;10.85;;;4.28;;
26052;SDS011;13826;51.186;4.450;2022-08-21T02:14:37;11.18;;;4.00;;
26052;SDS011;13826;51.186;4.450;2022-08-21T02:17:03;15.38;;;4.07;;
26052;SDS011;13826;51.186;4.450;2022-08-21T02:19:30;12.30;;;3.53;;
26052;SDS011;13826;51.186;4.450;2022-08-21T02:21:55;14.30;;;3.38;;
26052;SDS011;13826;51.186;4.450;2022-08-21T02:24:21;13.70;;;3.63;;
26052;SDS011;13826;51.186;4.450;2022-08-21T02:26:47;8.88;;;3.63;;
26052;SDS011;13826;51.186;4.450;2022-08-21T02:29:12;17.15;;;4.00;;
26052;SDS011;13826;51.186;4.450;2022-08-21T02:31:38;8.63;;;2.90;;
26052;SDS011;13826;51.186;4.450;2022-08-21T02:34:04;9.15;;;3.35;;
26052;SDS011;13826;51.186;4.450;2022-08-21T02:36:29;9.52;;;3.63;;
26052;SDS011;13826;51.186;4.450;2022-08-21T02:38:55;12.52;;;2.95;;
26052;SDS011;13826;51.186;4.450;2022-08-21T02:41:21;12.52;;;3.13;;
26052;SDS011;13826;51.186;4.450;2022-08-21T02:43:48;10.13;;;3.80;;
26052;SDS011;13826;51.186;4.450;2022-08-21T02:46:15;12.52;;;3.55;;
26052;SDS011;13826;51.186;4.450;2022-08-21T02:48:42;27.02;;;3.40;;
26052;SDS011;13826;51.186;4.450;2022-08-21T02:51:12;13.32;;;3.10;;
26052;SDS011;13826;51.186;4.450;2022-08-21T02:53:40;7.90;;;2.88;;
26052;SDS011;13826;51.186;4.450;2022-08-21T02:56:07;7.93;;;2.70;;
26052;SDS011;13826;51.186;4.450;2022-08-21T02:58:39;11.60;;;3.60;;
26052;SDS011;13826;51.186;4.450;2022-08-21T03:01:08;9.93;;;3.03;;
26052;SDS011;13826;51.186;4.450;2022-08-21T03:03:35;11.48;;;2.65;;
26052;SDS011;13826;51.186;4.450;2022-08-21T03:06:02;12.32;;;2.97;;
26052;SDS011;13826;51.186;4.450;2022-08-21T03:08:29;11.13;;;3.13;;
26052;SDS011;13826;51.186;4.450;2022-08-21T03:10:55;11.50;;;2.70;;
26052;SDS011;13826;51.186;4.450;2022-08-21T03:13:21;11.40;;;2.83;;
26052;SDS011;13826;51.186;4.450;2022-08-21T03:15:48;12.85;;;2.80;;
26052;SDS011;13826;51.186;4.450;2022-08-21T03:18:14;9.18;;;2.42;;
26052;SDS011;13826;51.186;4.450;2022-08-21T03:20:41;12.57;;;2.85;;
26052;SDS011;13826;51.186;4.450;2022-08-21T03:23:07;9.80;;;2.50;;
26052;SDS011;13826;51.186;4.450;2022-08-21T03:25:34;10.50;;;2.17;;
26052;SDS011;13826;51.186;4.450;2022-08-21T03:28:01;9.50;;;2.53;;
26052;SDS011;13826;51.186;4.450;2022-08-21T03:30:28;10.13;;;3.22;;
26052;SDS011;13826;51.186;4.450;2022-08-21T03:32:56;8.90;;;3.03;;
26052;SDS011;13826;51.186;4.450;2022-08-21T03:35:23;10.50;;;3.45;;
26052;SDS011;13826;51.186;4.450;2022-08-21T03:37:49;13.75;;;3.63;;
26052;SDS011;13826;51.186;4.450;2022-08-21T03:40:16;13.65;;;3.80;;
26052;SDS011;13826;51.186;4.450;2022-08-21T03:42:43;12.93;;;3.50;;
26052;SDS011;13826;51.186;4.450;2022-08-21T03:45:12;13.52;;;2.80;;
26052;SDS011;13826;51.186;4.450;2022-08-21T03:47:38;10.95;;;2.47;;
26052;SDS011;13826;51.186;4.450;2022-08-21T03:50:15;12.48;;;3.08;;
26052;SDS011;13826;51.186;4.450;2022-08-21T03:52:42;11.05;;;3.15;;
26052;SDS011;13826;51.186;4.450;2022-08-21T03:55:07;12.80;;;4.63;;
26052;SDS011;13826;51.186;4.450;2022-08-21T03:57:33;11.93;;;3.72;;
26052;SDS011;13826;51.186;4.450;2022-08-21T03:59:59;12.63;;;2.67;;
26052;SDS011;13826;51.186;4.450;2022-08-21T04:02:24;9.90;;;2.75;;
26052;SDS011;13826;51.186;4.450;2022-08-21T04:04:50;6.60;;;2.70;;
26052;SDS011;13826;51.186;4.450;2022-08-21T04:07:16;12.07;;;2.78;;
26052;SDS011;13826;51.186;4.450;2022-08-21T04:09:42;13.70;;;3.25;;
26052;SDS011;13826;51.186;4.450;2022-08-21T04:12:08;18.95;;;3.95;;
26052;SDS011;13826;51.186;4.450;2022-08-21T04:14:34;11.57;;;3.42;;
26052;SDS011;13826;51.186;4.450;2022-08-21T04:16:59;11.25;;;3.20;;
26052;SDS011;13826;51.186;4.450;2022-08-21T04:19:25;15.23;;;4.18;;
26052;SDS011;13826;51.186;4.450;2022-08-21T04:21:51;10.98;;;3.53;;
26052;SDS011;13826;51.186;4.450;2022-08-21T04:24:17;11.23;;;2.80;;
26052;SDS011;13826;51.186;4.450;2022-08-21T04:26:42;15.27;;;3.50;;
26052;SDS011;13826;51.186;4.450;2022-08-21T04:29:08;9.50;;;2.80;;
26052;SDS011;13826;51.186;4.450;2022-08-21T04:31:35;9.63;;;2.92;;
26052;SDS011;13826;51.186;4.450;2022-08-21T04:34:04;8.23;;;3.28;;
26052;SDS011;13826;51.186;4.450;2022-08-21T04:36:30;12.38;;;3.17;;
26052;SDS011;13826;51.186;4.450;2022-08-21T04:38:57;13.30;;;3.45;;
26052;SDS011;13826;51.186;4.450;2022-08-21T04:41:23;13.98;;;3.30;;
26052;SDS011;13826;51.186;4.450;2022-08-21T04:43:49;10.02;;;2.60;;
26052;SDS011;13826;51.186;4.450;2022-08-21T04:46:15;13.73;;;3.35;;
26052;SDS011;13826;51.186;4.450;2022-08-21T04:48:41;17.30;;;2.80;;
26052;SDS011;13826;51.186;4.450;2022-08-21T04:51:14;9.52;;;3.10;;
26052;SDS011;13826;51.186;4.450;2022-08-21T04:53:55;9.70;;;2.30;;
26052;SDS011;13826;51.186;4.450;2022-08-21T04:56:51;13.35;;;3.22;;
26052;SDS011;13826;51.186;4.450;2022-08-21T04:59:28;15.80;;;3.60;;
26052;SDS011;13826;51.186;4.450;2022-08-21T05:02:00;10.85;;;3.92;;
26052;SDS011;13826;51.186;4.450;2022-08-21T05:04:28;11.95;;;3.88;;
26052;SDS011;13826;51.186;4.450;2022-08-21T05:06:56;12.48;;;4.53;;
26052;SDS011;13826;51.186;4.450;2022-08-21T05:09:25;11.40;;;2.97;;
26052;SDS011;13826;51.186;4.450;2022-08-21T05:11:51;10.95;;;2.85;;
26052;SDS011;13826;51.186;4.450;2022-08-21T05:14:18;15.43;;;3.55;;
26052;SDS011;13826;51.186;4.450;2022-08-21T05:16:44;15.32;;;3.30;;
26052;SDS011;13826;51.186;4.450;2022-08-21T05:19:10;11.65;;;3.58;;
26052;SDS011;13826;51.186;4.450;2022-08-21T05:21:38;15.40;;;3.50;;
26052;SDS011;13826;51.186;4.450;2022-08-21T05:24:08;11.43;;;2.55;;
26052;SDS011;13826;51.186;4.450;2022-08-21T05:26:34;12.05;;;2.90;;
26052;SDS011;13826;51.186;4.450;2022-08-21T05:29:01;10.25;;;2.88;;
26052;SDS011;13826;51.186;4.450;2022-08-21T05:31:27;17.33;;;4.05;;
26052;SDS011;13826;51.186;4.450;2022-08-21T05:33:53;16.45;;;3.22;;
26052;SDS011;13826;51.186;4.450;2022-08-21T05:36:19;11.63;;;3.05;;
26052;SDS011;13826;51.186;4.450;2022-08-21T05:38:44;11.13;;;3.58;;
26052;SDS011;13826;51.186;4.450;2022-08-21T05:41:10;8.13;;;3.05;;
26052;SDS011;13826;51.186;4.450;2022-08-21T05:43:36;12.75;;;3.30;;
26052;SDS011;13826;51.186;4.450;2022-08-21T05:46:02;17.27;;;3.22;;
26052;SDS011;13826;51.186;4.450;2022-08-21T05:48:29;9.80;;;2.63;;
26052;SDS011;13826;51.186;4.450;2022-08-21T05:50:55;11.60;;;2.83;;
26052;SDS011;13826;51.186;4.450;2022-08-21T05:53:22;11.57;;;3.72;;
26052;SDS011;13826;51.186;4.450;2022-08-21T05:55:49;12.82;;;3.00;;
26052;SDS011;13826;51.186;4.450;2022-08-21T05:58:16;10.25;;;2.80;;
26052;SDS011;13826;51.186;4.450;2022-08-21T06:00:44;14.82;;;3.33;;
26052;SDS011;13826;51.186;4.450;2022-08-21T06:03:22;9.70;;;2.35;;
26052;SDS011;13826;51.186;4.450;2022-08-21T06:05:50;7.32;;;2.33;;
26052;SDS011;13826;51.186;4.450;2022-08-21T06:08:17;13.43;;;2.88;;
26052;SDS011;13826;51.186;4.450;2022-08-21T06:10:43;12.90;;;3.65;;
26052;SDS011;13826;51.186;4.450;2022-08-21T06:13:10;11.20;;;2.88;;
26052;SDS011;13826;51.186;4.450;2022-08-21T06:15:36;9.70;;;3.40;;
26052;SDS011;13826;51.186;4.450;2022-08-21T06:18:03;7.38;;;2.65;;
26052;SDS011;13826;51.186;4.450;2022-08-21T06:20:29;7.25;;;2.80;;
26052;SDS011;13826;51.186;4.450;2022-08-21T06:22:55;11.07;;;2.53;;
26052;SDS011;13826;51.186;4.450;2022-08-21T06:25:21;10.63;;;2.20;;
26052;SDS011;13826;51.186;4.450;2022-08-21T06:27:46;8.60;;;2.30;;
26052;SDS011;13826;51.186;4.450;2022-08-21T06:30:12;8.50;;;2.35;;
26052;SDS011;13826;51.186;4.450;2022-08-21T06:32:38;13.05;;;2.92;;
26052;SDS011;13826;51.186;4.450;2022-08-21T06:35:04;10.77;;;2.97;;
26052;SDS011;13826;51.186;4.450;2022-08-21T06:37:31;7.78;;;2.28;;
26052;SDS011;13826;51.186;4.450;2022-08-21T06:39:56;9.43;;;2.45;;
26052;SDS011;13826;51.186;4.450;2022-08-21T06:42:22;9.25;;;2.35;;
26052;SDS011;13826;51.186;4.450;2022-08-21T06:44:48;8.82;;;2.70;;
26052;SDS011;13826;51.186;4.450;2022-08-21T06:47:14;9.75;;;2.58;;
26052;SDS011;13826;51.186;4.450;2022-08-21T06:49:40;7.88;;;2.47;;
26052;SDS011;13826;51.186;4.450;2022-08-21T06:52:12;9.27;;;2.50;;
26052;SDS011;13826;51.186;4.450;2022-08-21T06:54:38;11.15;;;2.83;;
26052;SDS011;13826;51.186;4.450;2022-08-21T06:57:04;8.18;;;2.28;;
26052;SDS011;13826;51.186;4.450;2022-08-21T06:59:31;6.53;;;2.15;;
26052;SDS011;13826;51.186;4.450;2022-08-21T07:01:57;11.90;;;3.10;;
26052;SDS011;13826;51.186;4.450;2022-08-21T07:04:24;12.02;;;3.13;;
26052;SDS011;13826;51.186;4.450;2022-08-21T07:06:49;9.98;;;2.45;;
26052;SDS011;13826;51.186;4.450;2022-08-21T07:09:15;7.60;;;2.67;;
26052;SDS011;13826;51.186;4.450;2022-08-21T07:11:41;10.85;;;2.83;;
26052;SDS011;13826;51.186;4.450;2022-08-21T07:14:08;10.65;;;2.58;;
26052;SDS011;13826;51.186;4.450;2022-08-21T07:16:34;7.32;;;2.25;;
26052;SDS011;13826;51.186;4.450;2022-08-21T07:19:00;10.30;;;2.30;;
26052;SDS011;13826;51.186;4.450;2022-08-21T07:21:26;8.48;;;2.47;;
26052;SDS011;13826;51.186;4.450;2022-08-21T07:23:51;6.70;;;1.92;;
26052;SDS011;13826;51.186;4.450;2022-08-21T07:26:20;8.82;;;2.40;;
26052;SDS011;13826;51.186;4.450;2022-08-21T07:28:48;9.35;;;2.42;;
26052;SDS011;13826;51.186;4.450;2022-08-21T07:31:15;12.88;;;3.20;;
26052;SDS011;13826;51.186;4.450;2022-08-21T07:33:53;8.60;;;2.40;;
26052;SDS011;13826;51.186;4.450;2022-08-21T07:36:19;7.00;;;2.17;;
26052;SDS011;13826;51.186;4.450;2022-08-21T07:38:45;7.15;;;1.88;;
26052;SDS011;13826;51.186;4.450;2022-08-21T07:41:16;7.68;;;2.17;;
26052;SDS011;13826;51.186;4.450;2022-08-21T07:43:47;6.05;;;2.08;;
26052;SDS011;13826;51.186;4.450;2022-08-21T07:46:13;12.68;;;2.55;;
26052;SDS011;13826;51.186;4.450;2022-08-21T07:48:39;7.53;;;2.78;;
26052;SDS011;13826;51.186;4.450;2022-08-21T07:51:07;5.60;;;1.95;;
26052;SDS011;13826;51.186;4.450;2022-08-21T07:56:05;13.20;;;3.75;;
26052;SDS011;13826;51.186;4.450;2022-08-21T07:58:33;12.15;;;3.17;;
26052;SDS011;13826;51.186;4.450;2022-08-21T08:00:59;7.72;;;2.58;;
26052;SDS011;13826;51.186;4.450;2022-08-21T08:03:25;7.47;;;2.10;;
26052;SDS011;13826;51.186;4.450;2022-08-21T08:05:51;7.60;;;2.47;;
26052;SDS011;13826;51.186;4.450;2022-08-21T08:08:16;9.13;;;2.15;;
26052;SDS011;13826;51.186;4.450;2022-08-21T08:10:42;8.98;;;2.60;;
26052;SDS011;13826;51.186;4.450;2022-08-21T08:13:08;7.30;;;2.50;;
26052;SDS011;13826;51.186;4.450;2022-08-21T08:15:35;7.65;;;2.33;;
26052;SDS011;13826;51.186;4.450;2022-08-21T08:18:02;10.13;;;2.63;;
26052;SDS011;13826;51.186;4.450;2022-08-21T08:20:28;7.38;;;1.70;;
26052;SDS011;13826;51.186;4.450;2022-08-21T08:22:54;6.97;;;1.90;;
26052;SDS011;13826;51.186;4.450;2022-08-21T08:25:20;11.02;;;2.10;;
26052;SDS011;13826;51.186;4.450;2022-08-21T08:27:47;9.70;;;2.15;;
26052;SDS011;13826;51.186;4.450;2022-08-21T08:30:14;9.68;;;2.45;;
26052;SDS011;13826;51.186;4.450;2022-08-21T08:32:43;7.28;;;2.13;;
26052;SDS011;13826;51.186;4.450;2022-08-21T08:35:09;7.05;;;1.88;;
26052;SDS011;13826;51.186;4.450;2022-08-21T08:37:36;9.38;;;2.63;;
26052;SDS011;13826;51.186;4.450;2022-08-21T08:40:05;7.93;;;2.15;;
26052;SDS011;13826;51.186;4.450;2022-08-21T08:42:35;8.05;;;2.47;;
26052;SDS011;13826;51.186;4.450;2022-08-21T08:47:42;6.85;;;1.95;;
26052;SDS011;13826;51.186;4.450;2022-08-21T08:50:15;8.82;;;2.10;;
26052;SDS011;13826;51.186;4.450;2022-08-21T08:52:51;8.75;;;2.45;;
26052;SDS011;13826;51.186;4.450;2022-08-21T08:55:32;5.88;;;1.75;;
26052;SDS011;13826;51.186;4.450;2022-08-21T08:58:03;9.98;;;2.05;;
26052;SDS011;13826;51.186;4.450;2022-08-21T09:00:30;7.97;;;2.15;;
26052;SDS011;13826;51.186;4.450;2022-08-21T09:02:57;8.38;;;2.25;;
26052;SDS011;13826;51.186;4.450;2022-08-21T09:05:26;6.28;;;1.90;;
26052;SDS011;13826;51.186;4.450;2022-08-21T09:16:46;7.90;;;2.08;;
26052;SDS011;13826;51.186;4.450;2022-08-21T09:27:40;5.28;;;1.90;;
26052;SDS011;13826;51.186;4.450;2022-08-21T09:30:06;7.95;;;2.05;;
26052;SDS011;13826;51.186;4.450;2022-08-21T09:32:34;7.45;;;1.90;;
26052;SDS011;13826;51.186;4.450;2022-08-21T09:38:00;7.82;;;2.10;;
26052;SDS011;13826;51.186;4.450;2022-08-21T09:40:36;8.38;;;2.25;;
26052;SDS011;13826;51.186;4.450;2022-08-21T09:45:37;9.35;;;2.50;;
26052;SDS011;13826;51.186;4.450;2022-08-21T09:48:11;10.02;;;2.67;;
26052;SDS011;13826;51.186;4.450;2022-08-21T09:50:39;6.45;;;1.75;;
26052;SDS011;13826;51.186;4.450;2022-08-21T09:53:13;6.85;;;2.05;;
26052;SDS011;13826;51.186;4.450;2022-08-21T09:55:50;12.68;;;2.50;;
26052;SDS011;13826;51.186;4.450;2022-08-21T09:58:37;9.07;;;2.25;;
26052;SDS011;13826;51.186;4.450;2022-08-21T10:01:05;8.20;;;2.45;;
26052;SDS011;13826;51.186;4.450;2022-08-21T10:03:31;14.20;;;2.70;;
26052;SDS011;13826;51.186;4.450;2022-08-21T10:05:58;10.50;;;2.58;;
26052;SDS011;13826;51.186;4.450;2022-08-21T10:08:34;9.43;;;2.05;;
26052;SDS011;13826;51.186;4.450;2022-08-21T10:11:02;11.30;;;2.20;;
26052;SDS011;13826;51.186;4.450;2022-08-21T10:13:44;10.68;;;2.78;;
26052;SDS011;13826;51.186;4.450;2022-08-21T10:27:47;10.57;;;2.42;;
26052;SDS011;13826;51.186;4.450;2022-08-21T10:30:32;13.77;;;2.70;;
26052;SDS011;13826;51.186;4.450;2022-08-21T10:44:21;10.40;;;3.15;;
26052;SDS011;13826;51.186;4.450;2022-08-21T10:46:53;11.30;;;2.90;;
26052;SDS011;13826;51.186;4.450;2022-08-21T10:52:38;12.52;;;3.08;;
26052;SDS011;13826;51.186;4.450;2022-08-21T10:55:36;13.00;;;2.67;;
26052;SDS011;13826;51.186;4.450;2022-08-21T10:58:09;12.02;;;2.83;;
26052;SDS011;13826;51.186;4.450;2022-08-21T11:00:49;12.02;;;2.72;;
26052;SDS011;13826;51.186;4.450;2022-08-21T11:03:24;12.30;;;2.53;;
26052;SDS011;13826;51.186;4.450;2022-08-21T11:06:00;13.18;;;4.05;;
26052;SDS011;13826;51.186;4.450;2022-08-21T11:08:48;9.27;;;2.75;;
26052;SDS011;13826;51.186;4.450;2022-08-21T11:14:11;8.32;;;2.65;;
26052;SDS011;13826;51.186;4.450;2022-08-21T11:19:42;9.57;;;2.10;;
26052;SDS011;13826;51.186;4.450;2022-08-21T11:22:26;8.52;;;2.50;;
26052;SDS011;13826;51.186;4.450;2022-08-21T11:25:02;10.18;;;2.70;;
26052;SDS011;13826;51.186;4.450;2022-08-21T11:30:04;8.23;;;2.10;;
26052;SDS011;13826;51.186;4.450;2022-08-21T11:38:27;8.35;;;2.15;;
26052;SDS011;13826;51.186;4.450;2022-08-21T11:51:53;7.38;;;2.15;;
26052;SDS011;13826;51.186;4.450;2022-08-21T11:57:23;10.70;;;2.38;;
26052;SDS011;13826;51.186;4.450;2022-08-21T12:00:14;10.35;;;2.60;;
26052;SDS011;13826;51.186;4.450;2022-08-21T12:02:48;11.25;;;2.60;;
26052;SDS011;13826;51.186;4.450;2022-08-21T12:05:25;11.50;;;3.47;;
26052;SDS011;13826;51.186;4.450;2022-08-21T12:08:10;11.50;;;2.90;;
26052;SDS011;13826;51.186;4.450;2022-08-21T12:10:59;11.88;;;2.53;;
26052;SDS011;13826;51.186;4.450;2022-08-21T12:13:37;11.55;;;2.63;;
26052;SDS011;13826;51.186;4.450;2022-08-21T12:16:12;8.88;;;2.15;;
26052;SDS011;13826;51.186;4.450;2022-08-21T12:18:40;10.90;;;2.38;;
26052;SDS011;13826;51.186;4.450;2022-08-21T12:21:26;11.52;;;2.65;;
26052;SDS011;13826;51.186;4.450;2022-08-21T12:24:01;13.75;;;2.38;;
26052;SDS011;13826;51.186;4.450;2022-08-21T12:26:49;8.38;;;2.40;;
26052;SDS011;13826;51.186;4.450;2022-08-21T12:29:27;10.10;;;2.58;;
26052;SDS011;13826;51.186;4.450;2022-08-21T12:32:02;9.13;;;2.78;;
26052;SDS011;13826;51.186;4.450;2022-08-21T12:34:38;12.50;;;2.95;;
26052;SDS011;13826;51.186;4.450;2022-08-21T12:43:04;10.80;;;2.53;;
26052;SDS011;13826;51.186;4.450;2022-08-21T12:48:18;8.68;;;2.17;;
26052;SDS011;13826;51.186;4.450;2022-08-21T12:51:14;10.93;;;2.30;;
26052;SDS011;13826;51.186;4.450;2022-08-21T12:53:47;10.20;;;2.78;;
26052;SDS011;13826;51.186;4.450;2022-08-21T12:56:19;10.88;;;3.00;;
26052;SDS011;13826;51.186;4.450;2022-08-21T12:58:49;11.90;;;3.65;;
26052;SDS011;13826;51.186;4.450;2022-08-21T13:01:20;11.57;;;2.72;;
26052;SDS011;13826;51.186;4.450;2022-08-21T13:03:53;11.60;;;2.70;;
26052;SDS011;13826;51.186;4.450;2022-08-21T13:06:23;7.07;;;2.33;;
26052;SDS011;13826;51.186;4.450;2022-08-21T13:08:52;11.20;;;2.85;;
26052;SDS011;13826;51.186;4.450;2022-08-21T13:11:23;8.57;;;2.10;;
26052;SDS011;13826;51.186;4.450;2022-08-21T13:13:50;9.30;;;2.10;;
26052;SDS011;13826;51.186;4.450;2022-08-21T13:16:19;10.43;;;2.30;;
26052;SDS011;13826;51.186;4.450;2022-08-21T13:18:54;11.77;;;2.67;;
26052;SDS011;13826;51.186;4.450;2022-08-21T13:21:31;12.38;;;3.00;;
26052;SDS011;13826;51.186;4.450;2022-08-21T13:24:24;10.30;;;2.20;;
26052;SDS011;13826;51.186;4.450;2022-08-21T13:26:52;11.60;;;2.53;;
26052;SDS011;13826;51.186;4.450;2022-08-21T13:29:20;10.48;;;2.75;;
26052;SDS011;13826;51.186;4.450;2022-08-21T13:31:51;9.60;;;2.35;;
26052;SDS011;13826;51.186;4.450;2022-08-21T13:34:23;12.50;;;2.83;;
26052;SDS011;13826;51.186;4.450;2022-08-21T13:36:52;14.98;;;3.20;;
26052;SDS011;13826;51.186;4.450;2022-08-21T13:39:22;15.52;;;2.83;;
26052;SDS011;13826;51.186;4.450;2022-08-21T13:41:50;10.70;;;3.08;;
26052;SDS011;13826;51.186;4.450;2022-08-21T13:44:23;10.02;;;2.50;;
26052;SDS011;13826;51.186;4.450;2022-08-21T13:47:10;8.73;;;2.05;;
26052;SDS011;13826;51.186;4.450;2022-08-21T13:49:48;13.15;;;2.30;;
26052;SDS011;13826;51.186;4.450;2022-08-21T13:52:23;13.93;;;2.22;;
26052;SDS011;13826;51.186;4.450;2022-08-21T13:54:55;10.15;;;2.40;;
26052;SDS011;13826;51.186;4.450;2022-08-21T13:57:30;15.43;;;2.88;;
26052;SDS011;13826;51.186;4.450;2022-08-21T14:02:50;12.02;;;2.60;;
26052;SDS011;13826;51.186;4.450;2022-08-21T14:05:22;8.93;;;2.20;;
26052;SDS011;13826;51.186;4.450;2022-08-21T14:10:47;12.85;;;2.88;;
26052;SDS011;13826;51.186;4.450;2022-08-21T14:13:28;10.48;;;2.65;;
26052;SDS011;13826;51.186;4.450;2022-08-21T14:16:22;10.50;;;2.65;;
26052;SDS011;13826;51.186;4.450;2022-08-21T14:19:07;9.27;;;2.20;;
26052;SDS011;13826;51.186;4.450;2022-08-21T14:21:41;12.00;;;2.42;;
26052;SDS011;13826;51.186;4.450;2022-08-21T14:24:24;10.73;;;2.17;;
26052;SDS011;13826;51.186;4.450;2022-08-21T14:26:54;10.25;;;2.35;;
26052;SDS011;13826;51.186;4.450;2022-08-21T14:29:24;7.50;;;2.53;;
26052;SDS011;13826;51.186;4.450;2022-08-21T14:31:51;11.88;;;2.30;;
26052;SDS011;13826;51.186;4.450;2022-08-21T14:34:20;12.68;;;2.60;;
26052;SDS011;13826;51.186;4.450;2022-08-21T14:36:47;10.05;;;2.40;;
26052;SDS011;13826;51.186;4.450;2022-08-21T14:39:16;12.93;;;2.60;;
26052;SDS011;13826;51.186;4.450;2022-08-21T14:41:43;8.43;;;2.33;;
26052;SDS011;13826;51.186;4.450;2022-08-21T14:44:10;7.03;;;2.13;;
26052;SDS011;13826;51.186;4.450;2022-08-21T14:46:37;11.20;;;2.58;;
26052;SDS011;13826;51.186;4.450;2022-08-21T14:49:03;11.05;;;2.53;;
26052;SDS011;13826;51.186;4.450;2022-08-21T14:51:29;13.45;;;2.50;;
26052;SDS011;13826;51.186;4.450;2022-08-21T14:53:55;9.60;;;2.88;;
26052;SDS011;13826;51.186;4.450;2022-08-21T14:56:20;9.88;;;2.42;;
26052;SDS011;13826;51.186;4.450;2022-08-21T14:58:48;10.32;;;2.20;;
26052;SDS011;13826;51.186;4.450;2022-08-21T15:01:16;10.18;;;2.30;;
26052;SDS011;13826;51.186;4.450;2022-08-21T15:03:44;10.35;;;2.10;;
26052;SDS011;13826;51.186;4.450;2022-08-21T15:06:11;7.95;;;2.28;;
26052;SDS011;13826;51.186;4.450;2022-08-21T15:08:37;8.35;;;2.13;;
26052;SDS011;13826;51.186;4.450;2022-08-21T15:11:03;11.80;;;2.78;;
26052;SDS011;13826;51.186;4.450;2022-08-21T15:13:31;9.23;;;2.42;;
26052;SDS011;13826;51.186;4.450;2022-08-21T15:15:57;11.88;;;2.20;;
26052;SDS011;13826;51.186;4.450;2022-08-21T15:18:24;10.05;;;2.20;;
26052;SDS011;13826;51.186;4.450;2022-08-21T15:20:51;13.10;;;2.65;;
26052;SDS011;13826;51.186;4.450;2022-08-21T15:23:17;9.77;;;2.40;;
26052;SDS011;13826;51.186;4.450;2022-08-21T15:25:44;9.10;;;2.25;;
26052;SDS011;13826;51.186;4.450;2022-08-21T15:28:11;12.55;;;2.88;;
26052;SDS011;13826;51.186;4.450;2022-08-21T15:30:38;12.43;;;2.78;;
26052;SDS011;13826;51.186;4.450;2022-08-21T15:33:05;11.38;;;2.90;;
26052;SDS011;13826;51.186;4.450;2022-08-21T15:35:32;17.52;;;3.10;;
26052;SDS011;13826;51.186;4.450;2022-08-21T15:37:58;11.95;;;3.10;;
26052;SDS011;13826;51.186;4.450;2022-08-21T15:40:24;12.75;;;2.80;;
26052;SDS011;13826;51.186;4.450;2022-08-21T15:42:52;13.85;;;2.95;;
26052;SDS011;13826;51.186;4.450;2022-08-21T15:45:22;11.48;;;2.58;;
26052;SDS011;13826;51.186;4.450;2022-08-21T15:47:48;14.05;;;3.13;;
26052;SDS011;13826;51.186;4.450;2022-08-21T15:50:15;12.98;;;2.78;;
26052;SDS011;13826;51.186;4.450;2022-08-21T15:52:41;14.52;;;2.42;;
26052;SDS011;13826;51.186;4.450;2022-08-21T15:55:07;7.47;;;2.38;;
26052;SDS011;13826;51.186;4.450;2022-08-21T15:57:34;9.95;;;2.47;;
26052;SDS011;13826;51.186;4.450;2022-08-21T16:00:06;15.43;;;3.50;;
26052;SDS011;13826;51.186;4.450;2022-08-21T16:02:40;9.40;;;2.33;;
26052;SDS011;13826;51.186;4.450;2022-08-21T16:05:09;15.85;;;2.20;;
26052;SDS011;13826;51.186;4.450;2022-08-21T16:07:37;12.60;;;3.05;;
26052;SDS011;13826;51.186;4.450;2022-08-21T16:10:03;16.92;;;2.97;;
26052;SDS011;13826;51.186;4.450;2022-08-21T16:12:31;11.57;;;2.63;;
26052;SDS011;13826;51.186;4.450;2022-08-21T16:14:59;13.05;;;2.75;;
26052;SDS011;13826;51.186;4.450;2022-08-21T16:17:28;10.07;;;2.75;;
26052;SDS011;13826;51.186;4.450;2022-08-21T16:19:56;12.93;;;2.55;;
26052;SDS011;13826;51.186;4.450;2022-08-21T16:22:24;12.07;;;2.58;;
26052;SDS011;13826;51.186;4.450;2022-08-21T16:24:50;12.85;;;2.97;;
26052;SDS011;13826;51.186;4.450;2022-08-21T16:27:15;12.85;;;2.45;;